createdAt,value
2023-05-08T00:00:31.462Z,3.03
2023-05-08T00:03:03.824Z,3.01
2023-05-08T00:05:36.318Z,3.01
2023-05-08T00:08:08.697Z,2.99
2023-05-08T00:10:40.755Z,2.97
2023-05-08T00:13:13.007Z,2.97
2023-05-08T00:15:45.196Z,2.97
2023-05-08T00:18:17.485Z,2.97
2023-05-08T00:20:49.772Z,2.95
2023-05-08T00:23:22.403Z,2.92
2023-05-08T00:25:54.792Z,2.91
2023-05-08T00:28:26.922Z,2.87
2023-05-08T00:31:03.441Z,2.84
2023-05-08T00:33:35.401Z,2.80
2023-05-08T00:36:07.756Z,2.77
2023-05-08T00:38:39.734Z,2.75
2023-05-08T00:41:12.055Z,2.72
2023-05-08T00:43:44.364Z,2.70
2023-05-08T00:46:16.843Z,2.67
2023-05-08T00:48:49.175Z,2.64
2023-05-08T00:51:21.707Z,2.62
2023-05-08T00:53:53.800Z,2.60
2023-05-08T00:56:27.323Z,2.58
2023-05-08T00:58:59.949Z,2.58
2023-05-08T01:01:33.959Z,2.61
2023-05-08T01:04:06.657Z,2.65
2023-05-08T01:06:39.118Z,2.68
2023-05-08T01:09:11.504Z,2.73
2023-05-08T01:11:55.725Z,2.76
2023-05-08T01:14:33.809Z,2.77
2023-05-08T01:17:31.154Z,2.81
2023-05-08T01:20:24.335Z,2.83
2023-05-08T01:23:17.076Z,2.86
2023-05-08T01:26:14.337Z,2.85
2023-05-08T01:28:52.181Z,2.85
2023-05-08T01:31:46.285Z,2.89
2023-05-08T01:34:27.252Z,2.94
2023-05-08T01:37:14.638Z,3.00
2023-05-08T01:40:08.008Z,3.00
2023-05-08T01:43:16.102Z,3.07
2023-05-08T01:45:51.192Z,3.16
2023-05-08T01:48:29.106Z,3.22
2023-05-08T01:51:10.055Z,3.29
2023-05-08T01:53:48.005Z,3.34
2023-05-08T01:56:25.381Z,3.39
2023-05-08T01:59:00.236Z,3.44
2023-05-08T02:01:34.945Z,3.48
2023-05-08T02:04:08.524Z,3.53
2023-05-08T02:06:41.333Z,3.57
2023-05-08T02:09:14.108Z,3.73
2023-05-08T02:11:47.650Z,3.65
2023-05-08T02:14:23.345Z,3.68
2023-05-08T02:16:57.291Z,3.70
2023-05-08T02:19:31.250Z,3.70
2023-05-08T02:22:05.185Z,3.77
2023-05-08T02:24:39.601Z,3.80
2023-05-08T02:27:13.544Z,3.83
2023-05-08T02:29:46.662Z,3.90
2023-05-08T02:32:21.138Z,3.95
2023-05-08T02:35:03.291Z,4.01
2023-05-08T02:37:32.408Z,4.05
2023-05-08T02:40:07.649Z,4.10
2023-05-08T02:42:40.072Z,4.13
2023-05-08T02:45:14.118Z,4.18
2023-05-08T02:47:55.628Z,4.21
2023-05-08T02:50:42.425Z,4.26
2023-05-08T02:53:17.392Z,4.31
2023-05-08T02:55:59.074Z,4.37
2023-05-08T02:58:45.847Z,4.45
2023-05-08T03:01:24.955Z,4.51
2023-05-08T03:04:09.286Z,4.58
2023-05-08T03:06:44.412Z,4.66
2023-05-08T03:09:22.587Z,4.73
2023-05-08T03:11:57.850Z,4.80
2023-05-08T03:14:31.914Z,4.86
2023-05-08T03:17:07.023Z,4.93
2023-05-08T03:19:40.426Z,4.98
2023-05-08T03:22:14.760Z,5.04
2023-05-08T03:24:49.281Z,5.14
2023-05-08T03:27:22.100Z,5.21
2023-05-08T03:29:56.842Z,5.28
2023-05-08T03:32:31.172Z,5.35
2023-05-08T03:35:05.408Z,5.43
2023-05-08T03:37:36.730Z,5.52
2023-05-08T03:40:09.916Z,5.61
2023-05-08T03:42:42.764Z,5.69
2023-05-08T03:45:17.627Z,5.78
2023-05-08T03:47:50.256Z,5.86
2023-05-08T03:50:23.148Z,5.91
2023-05-08T03:52:56.018Z,5.97
2023-05-08T03:55:29.475Z,6.02
2023-05-08T03:58:13.741Z,6.10
2023-05-08T04:00:51.708Z,6.17
2023-05-08T04:03:27.174Z,6.24
2023-05-08T04:06:06.152Z,6.33
2023-05-08T04:08:45.349Z,6.41
2023-05-08T04:11:21.525Z,6.49
2023-05-08T04:13:56.669Z,6.58
2023-05-08T04:16:32.423Z,6.66
2023-05-08T04:19:07.229Z,6.75
2023-05-08T04:21:42.948Z,6.84
2023-05-08T04:24:18.330Z,6.93
2023-05-08T04:26:50.844Z,7.02
2023-05-08T04:29:23.972Z,7.10
2023-05-08T04:31:58.447Z,7.20
2023-05-08T04:34:31.435Z,7.32
2023-05-08T04:37:04.467Z,7.45
2023-05-08T04:39:36.509Z,7.58
2023-05-08T04:42:08.667Z,7.66
2023-05-08T04:44:40.629Z,7.73
2023-05-08T04:47:13.365Z,7.80
2023-05-08T04:49:46.190Z,7.86
2023-05-08T04:52:18.442Z,7.95
2023-05-08T04:54:50.720Z,7.99
2023-05-08T04:57:23.556Z,8.05
2023-05-08T04:59:55.746Z,8.13
2023-05-08T05:02:28.799Z,8.18
2023-05-08T05:05:01.662Z,8.23
2023-05-08T05:07:35.855Z,8.25
2023-05-08T05:10:08.275Z,8.28
2023-05-08T05:12:40.555Z,8.31
2023-05-08T05:15:13.660Z,8.42
2023-05-08T05:17:46.085Z,8.50
2023-05-08T05:20:18.615Z,8.60
2023-05-08T05:22:51.470Z,8.67
2023-05-08T05:25:23.870Z,8.75
2023-05-08T05:27:56.227Z,8.82
2023-05-08T05:30:28.605Z,8.89
2023-05-08T05:33:00.870Z,8.97
2023-05-08T05:35:33.530Z,9.05
2023-05-08T05:38:06.183Z,9.13
2023-05-08T05:40:38.494Z,9.21
2023-05-08T05:43:10.702Z,9.32
2023-05-08T05:45:43.666Z,9.41
2023-05-08T05:48:15.992Z,9.48
2023-05-08T05:50:49.067Z,9.49
2023-05-08T05:53:21.398Z,9.53
2023-05-08T05:55:53.800Z,9.58
2023-05-08T05:58:26.420Z,9.60
2023-05-08T06:01:01.836Z,9.66
2023-05-08T06:03:34.765Z,9.74
2023-05-08T06:06:08.526Z,9.81
2023-05-08T06:08:40.722Z,9.86
2023-05-08T06:11:15.540Z,9.90
2023-05-08T06:13:49.820Z,9.99
2023-05-08T06:16:23.441Z,10.60
2023-05-08T06:18:55.665Z,11.66
2023-05-08T06:21:29.584Z,12.48
2023-05-08T06:24:01.686Z,13.03
2023-05-08T06:26:33.829Z,13.36
2023-05-08T06:29:06.039Z,13.44
2023-05-08T06:31:38.229Z,13.36
2023-05-08T06:34:10.668Z,13.17
2023-05-08T06:36:43.343Z,12.99
2023-05-08T06:39:16.231Z,13.00
2023-05-08T06:41:51.127Z,12.93
2023-05-08T06:44:25.049Z,12.89
2023-05-08T06:46:57.552Z,12.90
2023-05-08T06:49:30.826Z,12.92
2023-05-08T06:52:02.882Z,12.95
2023-05-08T06:54:35.113Z,12.92
2023-05-08T06:57:08.938Z,12.91
2023-05-08T06:59:41.639Z,13.05
2023-05-08T07:02:15.811Z,13.14
2023-05-08T07:04:48.711Z,13.22
2023-05-08T07:07:21.204Z,13.24
2023-05-08T07:09:53.370Z,13.32
2023-05-08T07:12:25.702Z,13.48
2023-05-08T07:14:58.110Z,13.64
2023-05-08T07:17:31.065Z,13.79
2023-05-08T07:20:03.916Z,13.97
2023-05-08T07:22:35.998Z,14.00
2023-05-08T07:25:09.392Z,13.97
2023-05-08T07:27:41.792Z,14.04
2023-05-08T07:30:14.026Z,14.09
2023-05-08T07:32:46.129Z,14.09
2023-05-08T07:35:18.496Z,14.06
2023-05-08T07:37:51.119Z,14.08
2023-05-08T07:40:23.627Z,13.93
2023-05-08T07:42:55.952Z,13.82
2023-05-08T07:45:28.626Z,13.80
2023-05-08T07:48:01.160Z,13.81
2023-05-08T07:50:33.444Z,13.65
2023-05-08T07:53:05.574Z,13.43
2023-05-08T07:55:37.820Z,13.25
2023-05-08T07:58:10.093Z,13.03
2023-05-08T08:00:42.286Z,12.83
2023-05-08T08:03:14.589Z,12.60
2023-05-08T08:05:47.046Z,12.42
2023-05-08T08:08:19.181Z,12.31
2023-05-08T08:10:51.967Z,12.17
2023-05-08T08:13:24.173Z,12.11
2023-05-08T08:15:57.271Z,12.10
2023-05-08T08:18:29.877Z,12.16
2023-05-08T08:21:02.005Z,12.19
2023-05-08T08:23:34.250Z,12.36
2023-05-08T08:26:06.715Z,12.68
2023-05-08T08:28:38.927Z,13.03
2023-05-08T08:31:11.252Z,13.49
2023-05-08T08:33:43.568Z,13.82
2023-05-08T08:36:17.627Z,14.19
2023-05-08T08:38:49.871Z,14.90
2023-05-08T08:41:22.315Z,14.90
2023-05-08T08:43:54.405Z,15.16
2023-05-08T08:46:29.057Z,15.32
2023-05-08T08:49:03.115Z,15.37
2023-05-08T08:51:38.119Z,15.34
2023-05-08T08:54:15.396Z,15.15
2023-05-08T08:56:50.520Z,14.92
2023-05-08T08:59:25.015Z,14.74
2023-05-08T09:02:02.972Z,14.58
2023-05-08T09:04:35.073Z,14.56
2023-05-08T09:07:08.922Z,14.49
2023-05-08T09:09:41.846Z,14.57
2023-05-08T09:12:14.688Z,14.67
2023-05-08T09:14:46.997Z,14.83
2023-05-08T09:17:19.278Z,15.06
2023-05-08T09:19:52.404Z,15.44
2023-05-08T09:22:25.030Z,15.48
2023-05-08T09:24:58.734Z,15.60
2023-05-08T09:27:33.369Z,15.64
2023-05-08T09:30:10.724Z,15.62
2023-05-08T09:32:46.006Z,15.51
2023-05-08T09:35:18.415Z,15.46
2023-05-08T09:37:50.948Z,15.29
2023-05-08T09:40:23.686Z,15.13
2023-05-08T09:42:56.133Z,14.93
2023-05-08T09:45:34.675Z,14.72
2023-05-08T09:48:07.578Z,14.59
2023-05-08T09:50:41.584Z,14.43
2023-05-08T09:53:13.892Z,14.34
2023-05-08T09:55:49.534Z,14.31
2023-05-08T09:58:23.283Z,14.28
2023-05-08T10:00:55.722Z,14.33
2023-05-08T10:03:30.857Z,14.52
2023-05-08T10:06:14.753Z,14.73
2023-05-08T10:08:48.500Z,14.98
2023-05-08T10:11:22.142Z,15.35
2023-05-08T10:13:54.462Z,15.49
2023-05-08T10:16:30.384Z,15.73
2023-05-08T10:19:06.008Z,16.04
2023-05-08T10:21:39.239Z,16.39
2023-05-08T10:24:14.404Z,16.73
2023-05-08T10:27:02.952Z,17.03
2023-05-08T10:29:26.973Z,17.24
2023-05-08T10:32:01.152Z,17.38
2023-05-08T10:34:35.088Z,17.53
2023-05-08T10:37:09.434Z,17.70
2023-05-08T10:39:43.978Z,17.76
2023-05-08T10:42:15.619Z,17.90
2023-05-08T10:44:47.954Z,18.44
2023-05-08T10:47:39.373Z,18.20
2023-05-08T10:50:26.604Z,18.48
2023-05-08T10:53:17.171Z,18.83
2023-05-08T10:55:52.012Z,19.07
2023-05-08T10:58:27.065Z,19.27
2023-05-08T11:01:07.787Z,19.44
2023-05-08T11:03:48.816Z,19.41
2023-05-08T11:06:40.636Z,19.32
2023-05-08T11:09:24.622Z,19.47
2023-05-08T11:12:08.923Z,19.66
2023-05-08T11:14:43.529Z,19.67
2023-05-08T11:17:18.788Z,19.53
2023-05-08T11:20:01.834Z,19.23
2023-05-08T11:22:38.596Z,18.75
2023-05-08T11:25:12.909Z,18.36
2023-05-08T11:27:54.090Z,17.97
2023-05-08T11:30:38.765Z,17.67
2023-05-08T11:33:15.221Z,17.42
2023-05-08T11:36:01.656Z,17.07
2023-05-08T11:38:38.635Z,16.73
2023-05-08T11:41:25.896Z,16.45
2023-05-08T11:44:08.493Z,16.30
2023-05-08T11:46:47.515Z,16.12
2023-05-08T11:49:29.137Z,15.93
2023-05-08T11:52:00.862Z,15.93
2023-05-08T11:54:33.248Z,15.57
2023-05-08T11:57:06.006Z,15.52
2023-05-08T11:59:38.485Z,15.36
2023-05-08T12:02:11.006Z,15.23
2023-05-08T12:04:48.230Z,15.23
2023-05-08T12:07:20.964Z,15.37
2023-05-08T12:09:53.669Z,15.49
2023-05-08T12:12:27.569Z,15.50
2023-05-08T12:14:59.797Z,15.70
2023-05-08T12:17:33.931Z,15.86
2023-05-08T12:20:19.901Z,16.02
2023-05-08T12:22:54.324Z,16.27
2023-05-08T12:25:27.581Z,16.64
2023-05-08T12:28:00.940Z,17.09
2023-05-08T12:30:33.111Z,17.47
2023-05-08T12:33:06.770Z,17.83
2023-05-08T12:35:40.195Z,18.12
2023-05-08T12:38:12.554Z,18.32
2023-05-08T12:40:47.816Z,18.58
2023-05-08T12:43:20.281Z,18.98
2023-05-08T12:45:55.831Z,20.29
2023-05-08T12:48:29.114Z,21.67
2023-05-08T12:51:05.651Z,22.38
2023-05-08T12:53:39.615Z,22.49
2023-05-08T12:56:11.655Z,22.04
2023-05-08T12:58:43.750Z,21.55
2023-05-08T13:01:16.695Z,20.98
2023-05-08T13:04:01.067Z,20.51
2023-05-08T13:06:25.877Z,20.21
2023-05-08T13:08:58.327Z,20.15
2023-05-08T13:11:34.656Z,20.07
2023-05-08T13:14:07.323Z,19.74
2023-05-08T13:16:48.558Z,19.32
2023-05-08T13:19:21.731Z,19.21
2023-05-08T13:21:53.949Z,19.41
2023-05-08T13:24:27.068Z,19.38
2023-05-08T13:26:59.333Z,19.11
2023-05-08T13:29:31.844Z,18.67
2023-05-08T13:32:04.246Z,18.35
2023-05-08T13:34:41.506Z,18.04
2023-05-08T13:37:09.891Z,17.71
2023-05-08T13:39:42.152Z,17.34
2023-05-08T13:42:14.349Z,17.04
2023-05-08T13:44:46.609Z,16.70
2023-05-08T13:47:18.784Z,16.38
2023-05-08T13:49:51.035Z,16.04
2023-05-08T13:52:23.379Z,15.78
2023-05-08T13:54:55.568Z,15.57
2023-05-08T13:57:28.339Z,15.39
2023-05-08T14:00:01.230Z,15.17
2023-05-08T14:02:34.581Z,15.09
2023-05-08T14:05:09.125Z,14.97
2023-05-08T14:07:40.826Z,14.84
2023-05-08T14:10:12.743Z,15.08
2023-05-08T14:12:45.240Z,14.78
2023-05-08T14:15:17.585Z,14.67
2023-05-08T14:17:50.277Z,14.59
2023-05-08T14:20:22.991Z,14.55
2023-05-08T14:22:59.594Z,14.56
2023-05-08T14:25:29.341Z,14.55
2023-05-08T14:28:01.935Z,14.59
2023-05-08T14:30:34.247Z,14.65
2023-05-08T14:33:06.592Z,14.75
2023-05-08T14:35:39.176Z,14.83
2023-05-08T14:38:13.106Z,14.94
2023-05-08T14:40:45.334Z,15.06
2023-05-08T14:43:18.461Z,15.17
2023-05-08T14:45:51.118Z,15.25
2023-05-08T14:48:24.219Z,15.32
2023-05-08T14:50:57.385Z,15.42
2023-05-08T14:53:29.767Z,15.43
2023-05-08T14:56:02.719Z,15.47
2023-05-08T14:58:35.321Z,15.42
2023-05-08T15:01:07.745Z,15.25
2023-05-08T15:03:40.629Z,15.25
2023-05-08T15:06:13.268Z,15.34
2023-05-08T15:08:45.793Z,15.06
2023-05-08T15:11:18.871Z,15.06
2023-05-08T15:13:51.358Z,15.07
2023-05-08T15:16:24.155Z,14.99
2023-05-08T15:18:56.365Z,14.90
2023-05-08T15:21:28.778Z,14.78
2023-05-08T15:24:01.347Z,14.67
2023-05-08T15:26:33.501Z,14.61
2023-05-08T15:29:05.816Z,14.56
2023-05-08T15:31:38.255Z,14.48
2023-05-08T15:34:10.409Z,14.36
2023-05-08T15:36:42.526Z,14.21
2023-05-08T15:39:15.027Z,14.06
2023-05-08T15:41:47.468Z,13.90
2023-05-08T15:44:23.629Z,13.74
2023-05-08T15:46:56.549Z,13.62
2023-05-08T15:49:28.586Z,13.54
2023-05-08T15:52:00.782Z,13.49
2023-05-08T15:54:32.875Z,13.47
2023-05-08T15:57:05.061Z,13.46
2023-05-08T15:59:37.845Z,13.44
2023-05-08T16:02:10.187Z,13.35
2023-05-08T16:04:43.159Z,13.21
2023-05-08T16:07:15.277Z,13.03
2023-05-08T16:09:47.533Z,12.85
2023-05-08T16:12:20.061Z,12.64
2023-05-08T16:14:52.568Z,12.49
2023-05-08T16:17:24.987Z,12.35
2023-05-08T16:19:57.094Z,12.22
2023-05-08T16:22:29.659Z,12.08
2023-05-08T16:25:02.475Z,11.96
2023-05-08T16:27:34.900Z,11.85
2023-05-08T16:30:07.995Z,11.77
2023-05-08T16:32:43.307Z,11.67
2023-05-08T16:35:16.120Z,11.59
2023-05-08T16:37:48.940Z,11.48
2023-05-08T16:40:21.368Z,11.40
2023-05-08T16:42:53.798Z,11.28
2023-05-08T16:45:26.356Z,11.17
2023-05-08T16:47:58.825Z,11.01
2023-05-08T16:50:31.245Z,10.85
2023-05-08T16:53:03.722Z,10.73
2023-05-08T16:55:36.159Z,10.64
2023-05-08T16:58:08.725Z,10.54
2023-05-08T17:00:40.864Z,10.44
2023-05-08T17:03:13.046Z,10.35
2023-05-08T17:05:45.344Z,10.25
2023-05-08T17:08:18.102Z,10.13
2023-05-08T17:10:53.366Z,10.04
2023-05-08T17:13:25.644Z,9.93
2023-05-08T17:15:58.660Z,9.83
2023-05-08T17:18:31.206Z,9.75
2023-05-08T17:21:03.529Z,9.67
2023-05-08T17:23:35.624Z,9.62
2023-05-08T17:26:08.071Z,9.56
2023-05-08T17:28:40.412Z,9.48
2023-05-08T17:31:13.190Z,9.41
2023-05-08T17:33:45.329Z,9.33
2023-05-08T17:36:17.332Z,9.27
2023-05-08T17:38:50.642Z,9.15
2023-05-08T17:41:23.546Z,9.09
2023-05-08T17:43:56.086Z,9.01
2023-05-08T17:46:28.702Z,8.91
2023-05-08T17:49:01.954Z,8.84
2023-05-08T17:51:34.316Z,8.78
2023-05-08T17:54:06.944Z,8.72
2023-05-08T17:56:38.977Z,8.62
2023-05-08T17:59:11.512Z,8.52
2023-05-08T18:01:43.731Z,8.43
2023-05-08T18:04:16.303Z,8.34
2023-05-08T18:06:49.803Z,8.26
2023-05-08T18:09:22.347Z,8.20
2023-05-08T18:11:56.032Z,8.17
2023-05-08T18:14:32.972Z,8.11
2023-05-08T18:17:05.561Z,8.08
2023-05-08T18:19:37.711Z,8.03
2023-05-08T18:22:09.760Z,7.99
2023-05-08T18:24:42.154Z,7.97
2023-05-08T18:27:14.273Z,7.96
2023-05-08T18:29:46.388Z,7.91
2023-05-08T18:32:18.652Z,7.88
2023-05-08T18:34:50.909Z,7.87
2023-05-08T18:37:23.344Z,7.85
2023-05-08T18:39:55.718Z,7.79
2023-05-08T18:42:28.058Z,7.76
2023-05-08T18:45:00.990Z,7.73
2023-05-08T18:47:35.067Z,7.72
2023-05-08T18:50:07.784Z,7.70
2023-05-08T18:52:40.766Z,7.67
2023-05-08T18:55:13.289Z,7.64
2023-05-08T18:57:45.494Z,7.57
2023-05-08T19:00:18.119Z,7.53
2023-05-08T19:02:50.431Z,7.49
2023-05-08T19:05:22.945Z,7.48
2023-05-08T19:07:55.119Z,7.46
2023-05-08T19:10:27.459Z,7.46
2023-05-08T19:13:01.353Z,7.47
2023-05-08T19:15:33.566Z,7.46
2023-05-08T19:18:05.827Z,7.48
2023-05-08T19:20:38.202Z,7.41
2023-05-08T19:23:10.376Z,7.34
2023-05-08T19:25:42.609Z,7.30
2023-05-08T19:28:14.746Z,7.26
2023-05-08T19:30:47.064Z,7.21
2023-05-08T19:33:20.857Z,7.16
2023-05-08T19:35:53.440Z,7.09
2023-05-08T19:38:25.780Z,7.06
2023-05-08T19:40:58.242Z,7.06
2023-05-08T19:43:30.325Z,7.03
2023-05-08T19:46:02.488Z,7.02
2023-05-08T19:48:34.940Z,7.00
2023-05-08T19:51:11.778Z,7.01
2023-05-08T19:53:44.132Z,6.95
2023-05-08T19:56:16.500Z,6.93
2023-05-08T19:58:49.030Z,6.94
2023-05-08T20:01:21.176Z,6.90
2023-05-08T20:03:53.716Z,6.88
2023-05-08T20:06:43.419Z,6.83
2023-05-08T20:09:15.745Z,6.77
2023-05-08T20:11:47.888Z,6.73
2023-05-08T20:14:19.926Z,6.68
2023-05-08T20:16:52.136Z,6.65
2023-05-08T20:19:25.516Z,6.64
2023-05-08T20:21:57.635Z,6.59
2023-05-08T20:24:30.014Z,6.56
2023-05-08T20:27:02.302Z,6.53
2023-05-08T20:29:35.320Z,6.50
2023-05-08T20:32:08.394Z,6.46
2023-05-08T20:34:40.831Z,6.44
2023-05-08T20:37:13.198Z,6.39
2023-05-08T20:39:45.646Z,6.38
2023-05-08T20:42:18.385Z,6.36
2023-05-08T20:44:50.849Z,6.35
2023-05-08T20:47:22.910Z,6.31
2023-05-08T20:49:55.712Z,6.29
2023-05-08T20:52:28.182Z,6.25
2023-05-08T20:55:00.901Z,6.21
2023-05-08T20:57:33.976Z,6.21
2023-05-08T21:00:07.323Z,6.20
2023-05-08T21:02:41.364Z,6.14
2023-05-08T21:05:13.927Z,6.07
2023-05-08T21:07:46.357Z,6.04
2023-05-08T21:10:19.798Z,6.00
2023-05-08T21:12:52.176Z,5.98
2023-05-08T21:15:24.842Z,5.98
2023-05-08T21:17:57.445Z,5.96
2023-05-08T21:20:29.533Z,5.97
2023-05-08T21:23:01.862Z,5.94
2023-05-08T21:25:34.053Z,5.89
2023-05-08T21:28:06.370Z,5.85
2023-05-08T21:30:38.597Z,5.82
2023-05-08T21:33:12.029Z,5.77
2023-05-08T21:35:44.726Z,5.73
2023-05-08T21:38:16.756Z,5.70
2023-05-08T21:40:48.947Z,5.64
2023-05-08T21:43:21.428Z,5.61
2023-05-08T21:45:53.664Z,5.61
2023-05-08T21:48:26.462Z,5.59
2023-05-08T21:50:58.743Z,5.57
2023-05-08T21:53:31.199Z,5.59
2023-05-08T21:56:03.645Z,5.58
2023-05-08T21:58:35.985Z,5.58
2023-05-08T22:01:08.837Z,5.54
2023-05-08T22:03:41.425Z,5.50
2023-05-08T22:06:13.635Z,5.47
2023-05-08T22:08:46.267Z,5.42
2023-05-08T22:11:18.505Z,5.41
2023-05-08T22:13:50.787Z,5.34
2023-05-08T22:16:22.864Z,5.29
2023-05-08T22:18:55.260Z,5.24
2023-05-08T22:21:29.744Z,5.21
2023-05-08T22:24:02.601Z,5.17
2023-05-08T22:26:34.986Z,5.13
2023-05-08T22:29:07.120Z,5.08
2023-05-08T22:31:39.343Z,5.04
2023-05-08T22:34:11.739Z,5.02
2023-05-08T22:36:43.766Z,5.06
2023-05-08T22:39:15.870Z,5.02
2023-05-08T22:41:48.224Z,4.97
2023-05-08T22:44:21.156Z,4.92
2023-05-08T22:46:53.345Z,4.87
2023-05-08T22:49:29.515Z,4.86
2023-05-08T22:52:02.027Z,4.84
2023-05-08T22:54:34.107Z,4.81
2023-05-08T22:57:06.345Z,4.79
2023-05-08T22:59:38.825Z,4.75
2023-05-08T23:02:10.953Z,4.73
2023-05-08T23:04:43.585Z,4.73
2023-05-08T23:07:16.286Z,4.69
2023-05-08T23:09:48.644Z,4.66
2023-05-08T23:12:21.163Z,4.62
2023-05-08T23:14:53.652Z,4.58
2023-05-08T23:17:26.203Z,4.56
2023-05-08T23:19:58.425Z,4.53
2023-05-08T23:22:30.623Z,4.50
2023-05-08T23:25:03.298Z,4.48
2023-05-08T23:27:36.059Z,4.44
2023-05-08T23:30:09.016Z,4.44
2023-05-08T23:32:41.448Z,4.41
2023-05-08T23:35:14.050Z,4.38
2023-05-08T23:37:46.255Z,4.36
2023-05-08T23:40:18.498Z,4.32
2023-05-08T23:42:52.220Z,4.28
2023-05-08T23:45:25.006Z,4.26
2023-05-08T23:47:57.460Z,4.24
2023-05-08T23:50:29.634Z,4.24
2023-05-08T23:53:01.813Z,4.21
2023-05-08T23:55:36.108Z,4.20
2023-05-08T23:58:08.163Z,4.15
